메인 페이지
METAR-TAF:

METAR-TAF

공항 :

몰데, 노르웨이

위도: 62-45N, 경도: 007-16E, 고도: 0m

현재 날씨관측

예보는 25분 전, 20:50시(UTC)에 발표되었습니다.
남서16kt
온도 11°C
습도 62%
기압 1010 hPa
시정 10km 이상
약한이슬비,

METAR: ENML 192050Z AUTO 22016KT 9999NDV -DZ BKN056/// 11/04 Q1010

시각: 23:15 (21:15 UTC)

예보

예보는 7 시간 15분 전, 14:00시(UTC)에 발표되었습니다.
예보 대상 시간: 19일 15시부터 19일 23시까지 (UTC)
남서12kt
시정 10km 이상
고도 2500ft 상공 구름 조금
고도 4000ft 상공 구름 많음

TAF: ENML 191400Z 1915/1923 23012KT 9999 FEW025 BKN040

4,000개 이상의 공항 관측 자료 및 예보 (METAR 및 TAF 보고).

지도상에서 검색 가능한 기상관측소가 노란 점과 빨간 점으로 표시되어 있습니다.

기상관측소 명을 보려면 표시 위로 마우스를 이동하세요.

날씨 관측과 예보를 보려면 클릭하세요.

지도 변경 : 확대하려면 엑스 표시가 있는 녹색 버튼, 축소하려면 빼기 표시가 있는 녹색 버튼, 다음 페이지의 지도를 보려면 녹색 화살표를 클릭하세요.


METAR-TAF: